Latest Weather Observations for Launceston Airport

IDT60801

Issued at 10:31 am EST Tuesday 28 April 2015 (issued every 30 minutes, with the page automatically refreshed every 10 minutes)

About weather observations | Map of weather stations | Latest weather observations for TAS | Other Formats
Station Details ID: 091311 Name: LAUNCESTON AIRPORT Lat: -41.55 Lon: 147.21 Height: 166.9 m
Data from the previous 72 hours. | See also: Recent months at Launceston Airport
Date/Time
EST
Temp
°C
App
Temp
°C
Dew
Point
Rel
Hum
%
Delta-T
°C
Wind Press
QNH
hPa
Press
MSL
hPa
Rain
since 9 am
mm
Dir
 
Spd
km/h
Gust
km/h
Spd
kts
Gust
kts
28/10:30am 11.8 9.3 3.8 58 3.6 E 6 11 3 6 1027.2 1027.3 0.0
28/10:00am 10.2 8.1 3.9 65 2.8 ESE 4 9 2 5 1027.3 1027.4 0.0
28/09:30am 8.6 6.0 4.0 73 2.0 SSE 7 11 4 6 1027.3 1027.4 0.0
28/09:00am 6.3 3.2 3.6 83 1.1 SSW 9 13 5 7 1027.0 1027.0 0.0
28/08:30am 5.7 2.4 2.7 81 1.2 S 9 11 5 6 1027.0 1027.0 0.0
28/08:00am 3.8 0.4 2.0 88 0.7 SSW 9 13 5 7 1026.7 1026.7 0.0
28/07:30am 2.1 -1.1 0.6 90 0.6 S 7 9 4 5 1026.6 1026.6 0.0
28/07:00am 1.8 -2.2 0.5 91 0.5 SSW 11 13 6 7 1026.2 1026.2 0.0
28/06:30am 1.8 -1.8 0.3 90 0.6 S 9 13 5 7 1025.9 1025.9 0.0
28/06:00am 1.9 -1.8 0.0 87 0.7 SSW 9 15 5 8 1025.4 1025.4 0.0
28/05:30am 3.0 -0.2 0.9 86 0.8 SE 7 11 4 6 1025.2 1025.2 0.0
28/05:00am 3.0 0.5 1.4 89 0.6 SSW 4 6 2 3 1024.9 1024.9 0.0
28/04:30am 2.5 -1.0 1.2 91 0.5 SSE 9 11 5 6 1024.7 1024.7 0.0
28/04:00am 2.3 -1.3 0.8 90 0.6 S 9 13 5 7 1024.7 1024.7 0.0
28/03:30am 2.6 -0.9 1.1 90 0.6 SSW 9 11 5 6 1024.5 1024.5 0.0
28/03:00am 3.1 -0.7 1.6 90 0.6 S 11 13 6 7 1024.4 1024.4 0.0
28/02:30am 3.2 -0.3 1.4 88 0.7 S 9 13 5 7 1024.1 1024.2 0.0
28/02:00am 4.1 0.7 1.8 85 0.9 S 9 9 5 5 1024.2 1024.3 0.0
28/01:30am 4.2 1.1 1.2 81 1.2 SSE 7 9 4 5 1024.2 1024.3 0.0
28/01:00am 4.9 1.5 1.9 81 1.2 SSW 9 11 5 6 1024.2 1024.3 0.0
28/12:30am 4.9 1.2 2.1 82 1.1 S 11 13 6 7 1024.1 1024.2 0.0
28/12:00am 5.6 2.5 1.5 75 1.6 S 7 9 4 5 1024.0 1024.1 0.0
 
Date/Time
EST
Temp
°C
App
Temp
°C
Dew
Point
Rel
Hum
%
Delta-T
°C
Wind Press
QNH
hPa
Press
MSL
hPa
Rain
since 9 am
mm
Dir
 
Spd
km/h
Gust
km/h
Spd
kts
Gust
kts
27/11:30pm 6.2 3.4 2.3 76 1.6 WSW 6 7 3 4 1024.0 1024.1 0.0
27/11:00pm 5.6 2.1 1.5 75 1.6 SE 9 11 5 6 1024.0 1024.1 0.0
27/10:30pm 6.8 3.5 2.5 74 1.8 S 9 11 5 6 1023.8 1023.9 0.0
27/10:00pm 7.3 4.0 2.4 71 2.0 S 9 11 5 6 1023.7 1023.8 0.0
27/09:30pm 7.0 4.0 1.9 70 2.1 S 7 11 4 6 1023.3 1023.4 0.0
27/09:00pm 7.0 3.6 1.9 70 2.1 SSE 9 11 5 6 1023.0 1023.1 0.0
27/08:30pm 8.0 3.9 2.5 68 2.3 SSE 13 17 7 9 1022.6 1022.7 0.0
27/08:00pm 8.2 4.5 2.2 66 2.5 S 11 13 6 7 1022.4 1022.5 0.0
27/07:30pm 9.2 5.5 2.3 62 2.9 SSW 11 15 6 8 1022.0 1022.0 0.0
27/07:00pm 10.1 6.3 2.0 57 3.4 S 11 15 6 8 1021.6 1021.6 0.0
27/06:30pm 11.5 7.0 2.0 52 4.1 S 15 24 8 13 1021.4 1021.4 0.0
27/06:00pm 12.2 7.0 2.4 51 4.3 SSE 19 26 10 14 1020.8 1020.8 0.0
27/05:30pm 12.2 8.6 2.9 53 4.1 S 11 19 6 10 1020.2 1020.2 0.0
27/05:00pm 12.2 8.8 2.1 50 4.4 SE 9 13 5 7 1019.8 1019.8 0.0
27/04:30pm 14.0 9.9 2.0 44 5.3 SE 13 17 7 9 1019.2 1019.2 0.0
27/04:00pm 14.8 9.8 1.3 40 5.9 S 17 20 9 11 1018.8 1018.8 0.0
27/03:30pm 15.2 10.6 1.4 39 6.1 SSE 15 19 8 10 1018.7 1018.7 0.0
27/03:00pm 15.6 10.7 2.1 40 6.0 SSE 17 24 9 13 1018.7 1018.7 0.0
27/02:30pm 15.1 12.2 2.6 43 5.6 SW 7 15 4 8 1018.5 1018.5 0.0
27/02:00pm 15.0 12.1 1.5 40 5.9 W 6 13 3 7 1018.5 1018.5 0.0
27/01:30pm 14.6 12.1 1.8 42 5.7 E 4 9 2 5 1018.4 1018.4 0.0
27/01:00pm 14.1 11.0 1.1 41 5.6 SW 7 13 4 7 1018.5 1018.5 0.0
27/12:30pm 14.0 10.6 1.6 43 5.4 N 9 15 5 8 1018.6 1018.6 0.0
27/12:00pm 13.3 10.6 2.8 49 4.7 W 6 9 3 5 1018.9 1018.9 0.0
27/11:30am 12.5 9.4 1.5 47 4.7 WNW 7 15 4 8 1019.1 1019.1 0.0
27/11:00am 11.4 8.5 1.6 51 4.2 WSW 6 11 3 6 1019.0 1019.0 0.0
27/10:30am 10.7 7.2 3.5 61 3.2 NNW 11 13 6 7 1018.9 1018.9 0.0
27/10:00am 9.2 6.3 4.4 72 2.1 NNW 9 13 5 7 1018.9 1018.9 0.0
27/09:30am 7.5 5.2 4.6 82 1.3 NE 6 9 3 5 1018.7 1018.7 0.0
27/09:00am 6.5 3.9 4.2 85 1.0 NNW 7 11 4 6 1018.4 1018.4 0.2
27/08:30am 4.9 2.3 3.1 88 0.7 N 6 7 3 4 1018.3 1018.3 0.2
27/08:00am 3.4 0.3 1.4 87 0.8 N 7 9 4 5 1018.0 1018.1 0.2
27/07:30am 3.9 2.1 1.4 84 1.0 CALM 0 0 0 0 1017.6 1017.7 0.2
27/07:00am 3.5 1.6 0.6 81 1.1 CALM 0 0 0 0 1017.2 1017.3 0.2
27/06:30am 4.1 1.8 0.1 75 1.5 WNW 2 7 1 4 1017.0 1017.0 0.2
27/06:00am 5.1 3.4 1.6 78 1.4 CALM 0 0 0 0 1016.9 1016.9 0.2
27/05:30am 6.0 3.9 1.7 74 1.7 WNW 2 6 1 3 1016.8 1016.8 0.2
27/05:00am 5.1 3.3 1.0 75 1.6 CALM 0 0 0 0 1016.5 1016.5 0.2
27/04:30am 5.2 2.3 1.5 77 1.5 W 6 9 3 5 1016.2 1016.2 0.2
27/04:00am 5.2 2.7 1.7 78 1.4 SW 4 6 2 3 1016.0 1016.0 0.2
27/03:30am 5.3 3.5 1.1 74 1.7 CALM 0 0 0 0 1016.0 1016.0 0.2
27/03:00am 5.4 3.7 1.7 77 1.5 CALM 0 7 0 4 1015.8 1015.8 0.2
27/02:30am 4.9 3.1 1.4 78 1.4 CALM 0 0 0 0 1015.8 1015.8 0.2
27/02:00am 5.4 3.7 1.7 77 1.5 CALM 0 4 0 2 1015.8 1015.8 0.2
27/01:30am 4.5 2.4 1.5 81 1.2 NNE 2 6 1 3 1015.6 1015.6 0.2
27/01:00am 6.4 2.9 1.3 70 2.1 SSW 9 11 5 6 1015.7 1015.7 0.2
27/12:30am 6.6 3.5 1.5 70 2.1 SSW 7 11 4 6 1015.7 1015.7 0.2
27/12:00am 6.2 3.3 1.3 71 2.0 SSE 6 11 3 6 1015.6 1015.6 0.2
 
Date/Time
EST
Temp
°C
App
Temp
°C
Dew
Point
Rel
Hum
%
Delta-T
°C
Wind Press
QNH
hPa
Press
MSL
hPa
Rain
since 9 am
mm
Dir
 
Spd
km/h
Gust
km/h
Spd
kts
Gust
kts
26/11:30pm 7.5 3.4 2.0 68 2.3 S 13 19 7 10 1015.3 1015.3 0.2
26/11:00pm 8.3 4.0 3.2 70 2.2 S 15 20 8 11 1015.0 1015.0 0.2
26/10:30pm 7.3 4.2 3.4 76 1.7 SSE 9 11 5 6 1015.0 1015.0 0.2
26/10:00pm 7.7 4.6 3.6 75 1.8 SSW 9 11 5 6 1015.1 1015.1 0.2
26/09:30pm 8.7 5.9 3.3 69 2.3 SW 7 13 4 7 1015.1 1015.1 0.2
26/09:00pm 8.4 5.3 3.5 71 2.1 SSW 9 11 5 6 1014.7 1014.7 0.2
26/08:30pm 8.9 5.7 3.1 67 2.5 SSW 9 13 5 7 1014.5 1014.5 0.2
26/08:00pm 9.8 5.8 3.1 63 2.9 SW 13 17 7 9 1014.2 1014.2 0.2
26/07:30pm 10.8 6.1 3.1 59 3.4 SW 17 24 9 13 1014.1 1014.1 0.2
26/07:00pm 10.8 6.9 3.4 60 3.3 WSW 13 17 7 9 1013.8 1013.8 0.2
26/06:30pm 11.6 6.9 2.9 55 3.8 WSW 17 20 9 11 1013.5 1013.5 0.2
26/06:00pm 11.9 8.7 3.2 55 3.9 SW 9 11 5 6 1013.1 1013.1 0.2
26/05:30pm 11.9 9.4 3.7 57 3.7 WNW 6 9 3 5 1012.7 1012.7 0.2
26/05:00pm 12.3 9.6 2.7 52 4.2 NNE 6 9 3 5 1012.4 1012.4 0.2
26/04:30pm 13.2 10.4 3.0 50 4.6 NNE 7 9 4 5 1012.3 1012.3 0.2
26/04:00pm 13.6 10.9 2.5 47 4.9 NNE 6 9 3 5 1012.0 1011.9 0.2
26/03:30pm 13.5 10.7 1.8 45 5.1 ESE 6 7 3 4 1012.0 1011.9 0.2
26/03:00pm 13.4 10.5 1.7 45 5.1 NNW 6 9 3 5 1012.0 1011.9 0.2
26/02:30pm 13.5 10.6 1.5 44 5.2 WSW 6 11 3 6 1012.0 1011.9 0.2
26/02:00pm 14.7 11.6 1.3 40 5.9 WNW 7 11 4 6 1012.1 1012.0 0.2
26/01:30pm 13.2 9.2 0.3 41 5.4 S 11 19 6 10 1012.1 1012.0 0.2
26/01:00pm 12.9 8.9 0.6 43 5.2 SE 11 17 6 9 1012.4 1012.4 0.2
26/12:30pm 12.6 9.1 1.3 46 4.8 S 9 20 5 11 1012.6 1012.6 0.2
26/12:00pm 11.9 8.1 1.8 50 4.4 SE 11 17 6 9 1012.9 1012.9 0.0
26/11:30am 12.0 8.0 2.7 53 4.1 SW 13 17 7 9 1013.3 1013.3 0.0
26/11:00am 11.4 8.0 1.9 52 4.1 SSE 9 19 5 10 1013.5 1013.5 0.0
26/10:30am 11.3 7.3 2.6 55 3.8 SSE 13 20 7 11 1013.6 1013.6 0.0
26/10:00am 10.5 6.1 2.6 58 3.4 SE 15 20 8 11 1013.9 1013.9 0.0
26/09:30am 9.5 5.5 2.6 62 3.0 SE 13 19 7 10 1014.1 1014.1 0.0
26/09:00am 9.1 4.7 2.9 65 2.7 SSE 15 19 8 10 1014.1 1014.1 0.0
26/08:30am 8.7 4.5 3.7 71 2.2 SE 15 19 8 10 1014.0 1014.0 0.0
26/08:00am 8.5 4.0 4.1 74 1.9 SSE 17 20 9 11 1013.9 1013.9 0.0
26/07:30am 7.9 3.5 4.7 80 1.4 SSE 17 20 9 11 1013.5 1013.5 0.0
26/07:00am 7.5 3.5 4.8 83 1.2 SSE 15 20 8 11 1013.0 1013.0 0.0
26/06:30am 7.7 3.8 5.2 84 1.1 SSE 15 19 8 10 1012.7 1012.7 0.0
26/06:00am 7.5 2.8 5.1 85 1.1 SSE 19 24 10 13 1012.5 1012.5 0.0
26/05:30am 7.3 3.0 5.3 87 0.9 SSE 17 20 9 11 1012.2 1012.2 0.0
26/05:00am 7.4 2.7 5.2 86 1.0 SSE 19 24 10 13 1012.2 1012.2 0.0
26/04:30am 8.0 3.4 5.5 84 1.1 SSE 19 22 10 12 1012.1 1012.0 0.0
26/04:00am 8.2 4.0 5.5 83 1.2 SSE 17 22 9 12 1012.2 1012.2 0.0
26/03:30am 8.2 3.5 5.3 82 1.3 SSE 19 24 10 13 1012.1 1012.0 0.0
26/03:00am 8.6 3.8 5.5 81 1.4 SSE 20 28 11 15 1012.1 1012.0 0.0
26/02:30am 8.6 4.3 5.4 80 1.5 SSE 17 22 9 12 1012.3 1012.3 0.0
26/02:00am 8.7 4.1 5.8 82 1.3 SSE 19 22 10 12 1012.2 1012.2 0.0
26/01:30am 8.9 4.4 6.0 82 1.3 SE 19 22 10 12 1012.4 1012.4 0.0
26/01:00am 9.0 4.9 6.1 82 1.3 SSE 17 20 9 11 1012.4 1012.4 0.0
26/12:30am 8.9 4.8 6.0 82 1.3 SSE 17 22 9 12 1012.5 1012.5 0.0
26/12:00am 9.1 4.3 5.8 80 1.5 SSE 20 24 11 13 1012.3 1012.3 0.0
 
Date/Time
EST
Temp
°C
App
Temp
°C
Dew
Point
Rel
Hum
%
Delta-T
°C
Wind Press
QNH
hPa
Press
MSL
hPa
Rain
since 9 am
mm
Dir
 
Spd
km/h
Gust
km/h
Spd
kts
Gust
kts
25/11:30pm 9.3 4.6 6.0 80 1.5 SSE 20 24 11 13 1012.5 1012.5 0.0
25/11:00pm 9.3 4.2 6.2 81 1.4 SSE 22 30 12 16 1012.5 1012.5 0.0
25/10:30pm 9.4 4.4 6.3 81 1.4 SSE 22 30 12 16 1012.4 1012.4 0.0
25/10:00pm 9.6 4.2 6.3 80 1.5 SSE 24 30 13 16 1012.5 1012.5 0.0
25/09:30pm 9.5 4.2 6.8 83 1.3 SSE 24 28 13 15 1012.4 1012.4 0.0
25/09:00pm 9.7 4.5 7.1 84 1.2 SSE 24 30 13 16 1012.3 1012.3 0.0
25/08:30pm 10.5 5.5 6.6 77 1.8 S 22 32 12 17 1012.2 1012.2 0.0
25/08:00pm 10.9 6.1 7.2 78 1.8 S 22 28 12 15 1011.7 1011.7 0.0
25/07:30pm 11.2 6.9 7.7 79 1.7 S 20 24 11 13 1011.5 1011.5 0.0
25/07:00pm 11.7 7.9 7.4 75 2.1 SSE 17 24 9 13 1011.2 1011.2 0.0
25/06:30pm 11.8 7.0 7.5 75 2.1 SSE 22 28 12 15 1010.9 1010.9 0.0
25/06:00pm 11.8 7.5 7.9 77 1.9 SE 20 24 11 13 1010.5 1010.5 0.0
25/05:30pm 12.0 7.7 7.7 75 2.1 SE 20 26 11 14 1010.0 1010.0 0.0
25/05:00pm 12.3 7.9 7.6 73 2.3 SE 20 28 11 15 1009.7 1009.7 0.0
25/04:30pm 12.5 7.0 7.4 71 2.5 SE 26 32 14 17 1009.5 1009.5 0.0
25/04:00pm 13.9 8.4 7.4 65 3.2 SE 26 33 14 18 1009.3 1009.3 0.0
25/03:30pm 14.9 9.4 7.7 62 3.6 SE 26 33 14 18 1009.2 1009.2 0.0
25/03:00pm 14.9 9.4 7.5 61 3.7 SSE 26 32 14 17 1009.0 1009.0 0.0
25/02:30pm 15.5 10.1 7.8 60 3.9 SSE 26 35 14 19 1008.8 1008.8 0.0
25/02:00pm 15.8 10.7 7.6 58 4.1 SSE 24 32 13 17 1008.6 1008.6 0.0
25/01:30pm 16.0 11.0 8.2 60 4.0 SSE 24 33 13 18 1008.5 1008.5 0.0
25/01:00pm 15.5 10.1 7.8 60 3.9 SSE 26 35 14 19 1008.6 1008.6 0.0
25/12:30pm 14.5 8.7 8.0 65 3.3 SSE 28 35 15 19 1008.7 1008.7 0.0
25/12:00pm 15.1 10.2 8.3 64 3.5 SE 24 33 13 18 1009.0 1009.0 0.0
25/11:30am 14.4 8.7 8.4 67 3.0 SE 28 35 15 19 1009.1 1009.1 0.0
25/11:00am 13.8 8.8 8.0 68 2.9 SSE 24 32 13 17 1009.2 1009.2 0.0

Other Formats:

Comma delimited format used in spreadsheet applications
http://www.bom.gov.au/fwo/IDT60801/IDT60801.95966.axf

JavaScript Object Notation format (JSON) in row-major order
http://www.bom.gov.au/fwo/IDT60801/IDT60801.95966.json